createdAt,value
2023-03-30T00:00:17.837Z,0.00
2023-03-30T00:01:17.856Z,0.00
2023-03-30T00:02:17.759Z,0.00
2023-03-30T00:03:17.909Z,0.00
2023-03-30T00:04:18.030Z,0.00
2023-03-30T00:05:17.813Z,0.00
2023-03-30T00:06:17.708Z,0.00
2023-03-30T00:07:17.708Z,0.00
2023-03-30T00:08:17.671Z,0.00
2023-03-30T00:09:17.675Z,0.00
2023-03-30T00:10:17.676Z,0.00
2023-03-30T00:11:17.688Z,0.00
2023-03-30T00:12:17.634Z,0.00
2023-03-30T00:13:17.687Z,0.00
2023-03-30T00:14:17.621Z,0.00
2023-03-30T00:15:17.590Z,0.00
2023-03-30T00:16:17.644Z,0.00
2023-03-30T00:17:17.660Z,0.00
2023-03-30T00:18:17.618Z,0.00
2023-03-30T00:19:17.559Z,0.00
2023-03-30T00:20:17.633Z,0.00
2023-03-30T00:21:17.535Z,0.00
2023-03-30T00:22:17.511Z,0.00
2023-03-30T00:23:17.648Z,0.00
2023-03-30T00:24:17.525Z,0.00
2023-03-30T00:25:17.496Z,0.00
2023-03-30T00:26:17.516Z,0.00
2023-03-30T00:27:17.455Z,0.00
2023-03-30T00:28:17.487Z,0.00
2023-03-30T00:29:17.434Z,0.00
2023-03-30T00:30:17.470Z,0.00
2023-03-30T00:31:17.485Z,0.00
2023-03-30T00:32:17.418Z,0.00
2023-03-30T00:33:17.424Z,0.00
2023-03-30T00:34:17.456Z,0.00
2023-03-30T00:35:17.381Z,0.00
2023-03-30T00:36:17.438Z,0.00
2023-03-30T00:37:17.376Z,0.00
2023-03-30T00:38:17.319Z,0.00
2023-03-30T00:39:17.352Z,0.00
2023-03-30T00:40:17.355Z,0.00
2023-03-30T00:41:17.311Z,0.00
2023-03-30T00:42:17.367Z,0.00
2023-03-30T00:43:17.287Z,0.00
2023-03-30T00:44:17.261Z,0.00
2023-03-30T00:45:17.302Z,0.00
2023-03-30T00:46:17.289Z,0.00
2023-03-30T00:47:17.249Z,0.00
2023-03-30T00:48:17.225Z,0.00
2023-03-30T00:49:17.191Z,0.00
2023-03-30T00:50:17.226Z,0.00
2023-03-30T00:51:17.236Z,0.00
2023-03-30T00:52:17.196Z,0.00
2023-03-30T00:53:17.213Z,0.00
2023-03-30T00:54:17.188Z,0.00
2023-03-30T00:55:17.140Z,0.00
2023-03-30T00:56:17.145Z,0.00
2023-03-30T00:57:17.143Z,0.00
2023-03-30T00:58:17.109Z,0.00
2023-03-30T00:59:17.147Z,0.00
2023-03-30T01:00:17.098Z,0.00
2023-03-30T01:01:17.120Z,0.00
2023-03-30T01:02:17.072Z,0.00
2023-03-30T01:03:17.117Z,0.00
2023-03-30T01:04:17.024Z,0.00
2023-03-30T01:05:17.020Z,0.00
2023-03-30T01:06:17.034Z,0.00
2023-03-30T01:07:17.015Z,0.00
2023-03-30T01:08:17.003Z,0.00
2023-03-30T01:09:17.000Z,0.00
2023-03-30T01:10:16.964Z,0.00
2023-03-30T01:11:17.028Z,0.00
2023-03-30T01:12:16.987Z,0.00
2023-03-30T01:13:16.982Z,0.00
2023-03-30T01:14:16.938Z,0.00
2023-03-30T01:15:16.921Z,0.00
2023-03-30T01:16:16.974Z,0.00
2023-03-30T01:17:16.890Z,0.00
2023-03-30T01:18:16.901Z,0.00
2023-03-30T01:19:16.896Z,0.00
2023-03-30T01:20:16.919Z,0.00
2023-03-30T01:21:16.866Z,0.00
2023-03-30T01:22:16.849Z,0.00
2023-03-30T01:23:16.819Z,0.00
2023-03-30T01:24:16.814Z,0.00
2023-03-30T01:25:16.821Z,0.00
2023-03-30T01:26:16.790Z,0.00
2023-03-30T01:27:17.176Z,0.00
2023-03-30T01:28:16.774Z,0.00
2023-03-30T01:29:16.803Z,0.00
2023-03-30T01:30:16.801Z,0.00
2023-03-30T01:31:16.793Z,0.00
2023-03-30T01:32:16.714Z,0.00
2023-03-30T01:33:16.717Z,0.00
2023-03-30T01:34:16.702Z,0.00
2023-03-30T01:35:16.757Z,0.00
2023-03-30T01:36:16.755Z,0.00
2023-03-30T01:37:16.665Z,0.00
2023-03-30T01:38:16.676Z,0.00
2023-03-30T01:39:16.679Z,0.00
2023-03-30T01:40:16.641Z,0.00
2023-03-30T01:41:16.603Z,0.00
2023-03-30T01:42:16.625Z,0.00
2023-03-30T01:43:16.641Z,0.00
2023-03-30T01:44:16.617Z,0.00
2023-03-30T01:45:16.582Z,0.00
2023-03-30T01:46:16.644Z,0.00
2023-03-30T01:47:16.542Z,0.00
2023-03-30T01:48:16.532Z,0.00
2023-03-30T01:49:16.532Z,0.00
2023-03-30T01:50:16.594Z,0.00
2023-03-30T01:51:16.533Z,0.00
2023-03-30T01:52:16.523Z,0.00
2023-03-30T01:53:16.481Z,0.00
2023-03-30T01:54:16.515Z,0.00
2023-03-30T01:55:16.521Z,0.00
2023-03-30T01:56:16.464Z,0.00
2023-03-30T01:57:16.469Z,0.00
2023-03-30T01:58:16.436Z,0.00
2023-03-30T01:59:16.492Z,0.00
2023-03-30T02:00:16.439Z,0.00
2023-03-30T02:01:16.427Z,0.00
2023-03-30T02:02:16.424Z,0.00
2023-03-30T02:03:16.455Z,0.00
2023-03-30T02:04:16.486Z,0.00
2023-03-30T02:05:16.374Z,0.00
2023-03-30T02:06:16.353Z,0.00
2023-03-30T02:07:16.318Z,0.00
2023-03-30T02:08:16.383Z,0.00
2023-03-30T02:09:16.359Z,0.00
2023-03-30T02:10:16.307Z,0.00
2023-03-30T02:11:16.298Z,0.00
2023-03-30T02:12:16.356Z,0.00
2023-03-30T02:13:16.272Z,0.00
2023-03-30T02:14:16.281Z,0.00
2023-03-30T02:15:16.242Z,0.00
2023-03-30T02:16:16.237Z,0.00
2023-03-30T02:17:16.230Z,0.00
2023-03-30T02:18:16.218Z,0.00
2023-03-30T02:19:16.254Z,0.00
2023-03-30T02:20:16.222Z,0.00
2023-03-30T02:21:16.208Z,0.00
2023-03-30T02:22:16.177Z,0.00
2023-03-30T02:23:16.159Z,0.00
2023-03-30T02:24:16.158Z,0.00
2023-03-30T02:25:16.127Z,0.00
2023-03-30T02:26:16.139Z,0.00
2023-03-30T02:27:16.174Z,0.00
2023-03-30T02:28:16.085Z,0.00
2023-03-30T02:29:16.124Z,0.00
2023-03-30T02:30:16.089Z,0.00
2023-03-30T02:31:16.073Z,0.00
2023-03-30T02:32:16.096Z,0.00
2023-03-30T02:33:16.076Z,0.00
2023-03-30T02:34:16.034Z,0.00
2023-03-30T02:35:16.051Z,0.00
2023-03-30T02:36:16.037Z,0.00
2023-03-30T02:37:16.007Z,0.00
2023-03-30T02:38:15.982Z,0.00
2023-03-30T02:39:16.009Z,0.00
2023-03-30T02:40:15.947Z,0.00
2023-03-30T02:41:15.957Z,0.00
2023-03-30T02:42:15.910Z,0.00
2023-03-30T02:43:15.944Z,0.00
2023-03-30T02:44:15.958Z,0.00
2023-03-30T02:45:15.930Z,0.00
2023-03-30T02:46:15.917Z,0.00
2023-03-30T02:47:15.859Z,0.00
2023-03-30T02:48:15.872Z,0.00
2023-03-30T02:49:15.933Z,0.00
2023-03-30T02:50:15.834Z,0.00
2023-03-30T02:51:15.849Z,0.00
2023-03-30T02:52:15.821Z,0.00
2023-03-30T02:53:15.807Z,0.00
2023-03-30T02:54:15.822Z,0.00
2023-03-30T02:55:15.810Z,0.00
2023-03-30T02:56:15.742Z,0.00
2023-03-30T02:57:15.809Z,0.00
2023-03-30T02:58:16.696Z,0.00
2023-03-30T02:59:15.749Z,0.00
2023-03-30T03:00:15.715Z,0.00
2023-03-30T03:01:15.737Z,0.00
2023-03-30T03:02:15.732Z,0.00
2023-03-30T03:03:15.812Z,0.00
2023-03-30T03:04:15.723Z,0.00
2023-03-30T03:05:15.721Z,0.00
2023-03-30T03:06:15.647Z,0.00
2023-03-30T03:07:15.651Z,0.00
2023-03-30T03:08:15.625Z,0.00
2023-03-30T03:09:15.629Z,0.00
2023-03-30T03:10:15.620Z,0.00
2023-03-30T03:11:15.622Z,0.00
2023-03-30T03:12:15.590Z,0.00
2023-03-30T03:13:15.603Z,0.00
2023-03-30T03:14:15.641Z,0.00
2023-03-30T03:15:15.570Z,0.00
2023-03-30T03:16:15.558Z,0.00
2023-03-30T03:17:15.704Z,0.00
2023-03-30T03:18:15.496Z,0.00
2023-03-30T03:19:15.535Z,0.00
2023-03-30T03:20:15.484Z,0.00
2023-03-30T03:21:15.484Z,0.00
2023-03-30T03:22:15.465Z,0.00
2023-03-30T03:23:15.465Z,0.00
2023-03-30T03:24:15.457Z,0.00
2023-03-30T03:25:15.513Z,0.00
2023-03-30T03:26:15.444Z,0.00
2023-03-30T03:27:15.406Z,0.00
2023-03-30T03:28:15.379Z,0.00
2023-03-30T03:29:15.407Z,0.00
2023-03-30T03:30:15.371Z,0.00
2023-03-30T03:31:15.426Z,0.00
2023-03-30T03:32:15.339Z,0.00
2023-03-30T03:33:15.331Z,0.00
2023-03-30T03:34:15.329Z,0.00
2023-03-30T03:35:15.319Z,0.00
2023-03-30T03:36:15.315Z,0.00
2023-03-30T03:37:15.280Z,0.00
2023-03-30T03:38:15.261Z,0.00
2023-03-30T03:39:15.280Z,0.00
2023-03-30T03:40:15.248Z,0.00
2023-03-30T03:41:15.235Z,0.00
2023-03-30T03:42:15.222Z,0.00
2023-03-30T03:43:15.208Z,0.00
2023-03-30T03:44:15.220Z,0.00
2023-03-30T03:45:15.199Z,0.00
2023-03-30T03:46:15.244Z,0.00
2023-03-30T03:47:16.560Z,0.00
2023-03-30T03:48:15.163Z,0.00
2023-03-30T03:49:15.168Z,0.00
2023-03-30T03:50:15.139Z,0.00
2023-03-30T03:51:15.126Z,0.00
2023-03-30T03:52:15.112Z,0.00
2023-03-30T03:53:15.101Z,0.00
2023-03-30T03:54:15.107Z,0.00
2023-03-30T03:55:15.103Z,0.00
2023-03-30T03:56:15.071Z,0.00
2023-03-30T03:57:15.196Z,0.00
2023-03-30T03:58:15.049Z,0.00
2023-03-30T03:59:15.045Z,0.00
2023-03-30T04:00:15.033Z,0.00
2023-03-30T04:01:15.426Z,0.00
2023-03-30T04:02:15.036Z,0.00
2023-03-30T04:03:15.030Z,0.00
2023-03-30T04:04:15.020Z,0.00
2023-03-30T04:05:14.961Z,0.00
2023-03-30T04:06:14.964Z,0.00
2023-03-30T04:07:14.937Z,0.00
2023-03-30T04:08:14.927Z,0.00
2023-03-30T04:09:14.933Z,0.00
2023-03-30T04:10:14.894Z,0.00
2023-03-30T04:11:14.905Z,0.00
2023-03-30T04:12:14.895Z,0.00
2023-03-30T04:13:14.878Z,0.00
2023-03-30T04:14:14.883Z,0.00
2023-03-30T04:15:14.860Z,0.00
2023-03-30T04:16:14.903Z,0.00
2023-03-30T04:17:14.875Z,0.00
2023-03-30T04:18:14.842Z,0.00
2023-03-30T04:19:14.829Z,0.00
2023-03-30T04:20:14.784Z,0.00
2023-03-30T04:21:14.774Z,0.00
2023-03-30T04:22:14.796Z,0.00
2023-03-30T04:23:14.755Z,0.00
2023-03-30T04:24:14.752Z,0.00
2023-03-30T04:25:14.732Z,0.00
2023-03-30T04:26:14.715Z,0.00
2023-03-30T04:27:14.712Z,0.00
2023-03-30T04:28:14.721Z,0.00
2023-03-30T04:29:14.683Z,0.00
2023-03-30T04:30:14.675Z,0.00
2023-03-30T04:31:14.789Z,0.00
2023-03-30T04:32:14.706Z,0.00
2023-03-30T04:33:14.672Z,0.00
2023-03-30T04:34:14.646Z,0.00
2023-03-30T04:35:14.619Z,0.00
2023-03-30T04:36:14.638Z,0.00
2023-03-30T04:37:14.605Z,0.00
2023-03-30T04:38:14.577Z,0.00
2023-03-30T04:39:14.587Z,0.00
2023-03-30T04:40:14.569Z,0.00
2023-03-30T04:41:14.552Z,0.00
2023-03-30T04:42:14.533Z,0.00
2023-03-30T04:43:14.611Z,0.00
2023-03-30T04:44:14.518Z,0.00
2023-03-30T04:45:14.552Z,0.00
2023-03-30T04:46:14.558Z,0.00
2023-03-30T04:47:14.489Z,4.00
2023-03-30T04:48:14.481Z,4.00
2023-03-30T04:49:14.464Z,0.00
2023-03-30T04:50:14.474Z,4.00
2023-03-30T04:51:14.444Z,4.00
2023-03-30T04:52:14.421Z,4.00
2023-03-30T04:53:14.436Z,4.00
2023-03-30T04:54:14.403Z,4.00
2023-03-30T04:55:14.436Z,8.00
2023-03-30T04:56:14.375Z,12.00
2023-03-30T04:57:14.389Z,8.00
2023-03-30T04:58:14.377Z,12.00
2023-03-30T04:59:14.351Z,16.00
2023-03-30T05:00:14.352Z,20.00
2023-03-30T05:01:14.422Z,24.00
2023-03-30T05:02:14.349Z,24.00
2023-03-30T05:03:14.392Z,32.00
2023-03-30T05:04:14.305Z,32.00
2023-03-30T05:05:14.279Z,40.00
2023-03-30T05:06:14.257Z,44.00
2023-03-30T05:07:14.249Z,52.00
2023-03-30T05:08:14.256Z,56.00
2023-03-30T05:09:14.271Z,68.00
2023-03-30T05:10:14.225Z,76.00
2023-03-30T05:11:14.204Z,92.00
2023-03-30T05:12:14.216Z,108.00
2023-03-30T05:13:14.181Z,120.00
2023-03-30T05:14:14.194Z,136.00
2023-03-30T05:15:14.173Z,152.00
2023-03-30T05:16:14.178Z,164.00
2023-03-30T05:17:14.183Z,176.00
2023-03-30T05:18:14.172Z,192.00
2023-03-30T05:19:14.133Z,200.00
2023-03-30T05:20:14.114Z,212.00
2023-03-30T05:21:14.093Z,220.00
2023-03-30T05:22:14.094Z,236.00
2023-03-30T05:23:14.067Z,248.00
2023-03-30T05:24:14.088Z,256.00
2023-03-30T05:25:14.052Z,264.00
2023-03-30T05:26:14.056Z,276.00
2023-03-30T05:27:14.027Z,288.00
2023-03-30T05:28:14.011Z,300.00
2023-03-30T05:29:14.021Z,316.00
2023-03-30T05:30:13.993Z,328.00
2023-03-30T05:31:14.035Z,340.00
2023-03-30T05:32:13.967Z,356.00
2023-03-30T05:33:13.947Z,368.00
2023-03-30T05:34:13.968Z,380.00
2023-03-30T05:35:13.923Z,392.00
2023-03-30T05:36:13.951Z,404.00
2023-03-30T05:37:13.900Z,420.00
2023-03-30T05:38:13.906Z,432.00
2023-03-30T05:39:13.914Z,444.00
2023-03-30T05:40:13.879Z,456.00
2023-03-30T05:41:13.860Z,460.00
2023-03-30T05:42:13.849Z,456.00
2023-03-30T05:43:13.832Z,444.00
2023-03-30T05:44:13.846Z,420.00
2023-03-30T05:45:13.812Z,400.00
2023-03-30T05:46:13.931Z,356.00
2023-03-30T05:47:13.797Z,316.00
2023-03-30T05:48:13.903Z,280.00
2023-03-30T05:49:13.788Z,264.00
2023-03-30T05:50:13.763Z,252.00
2023-03-30T05:51:13.742Z,248.00
2023-03-30T05:52:13.748Z,232.00
2023-03-30T05:53:13.746Z,228.00
2023-03-30T05:54:13.729Z,224.00
2023-03-30T05:55:13.716Z,208.00
2023-03-30T05:56:13.697Z,208.00
2023-03-30T05:57:13.739Z,208.00
2023-03-30T05:58:13.670Z,208.00
2023-03-30T05:59:13.859Z,220.00
2023-03-30T06:00:13.667Z,240.00
2023-03-30T06:01:13.626Z,264.00
2023-03-30T06:02:13.620Z,284.00
2023-03-30T06:03:13.689Z,296.00
2023-03-30T06:04:13.752Z,308.00
2023-03-30T06:05:13.609Z,308.00
2023-03-30T06:06:13.580Z,316.00
2023-03-30T06:07:13.577Z,344.00
2023-03-30T06:08:13.607Z,408.00
2023-03-30T06:09:13.547Z,528.00
2023-03-30T06:10:13.595Z,692.00
2023-03-30T06:11:13.514Z,752.00
2023-03-30T06:12:13.517Z,728.00
2023-03-30T06:13:13.485Z,700.00
2023-03-30T06:14:13.490Z,696.00
2023-03-30T06:15:13.491Z,732.00
2023-03-30T06:16:13.596Z,752.00
2023-03-30T06:17:13.446Z,784.00
2023-03-30T06:18:13.516Z,816.00
2023-03-30T06:19:13.417Z,820.00
2023-03-30T06:20:13.452Z,836.00
2023-03-30T06:21:13.402Z,888.00
2023-03-30T06:22:13.399Z,1032.00
2023-03-30T06:23:13.371Z,1296.00
2023-03-30T06:24:13.418Z,1612.00
2023-03-30T06:25:13.407Z,1432.00
2023-03-30T06:26:13.487Z,1276.00
2023-03-30T06:27:13.525Z,1316.00
2023-03-30T06:28:13.324Z,1436.00
2023-03-30T06:29:13.341Z,1776.00
2023-03-30T06:30:13.443Z,2340.00
2023-03-30T06:31:13.319Z,1852.00
2023-03-30T06:32:13.352Z,1628.00
2023-03-30T06:33:13.318Z,1816.00
2023-03-30T06:34:13.271Z,1680.00
2023-03-30T06:35:13.263Z,1664.00
2023-03-30T06:36:13.403Z,1636.00
2023-03-30T06:37:13.216Z,1560.00
2023-03-30T06:38:13.227Z,1472.00
2023-03-30T06:39:13.225Z,1564.00
2023-03-30T06:40:13.327Z,1980.00
2023-03-30T06:41:13.195Z,2216.00
2023-03-30T06:42:13.173Z,2328.00
2023-03-30T06:43:13.148Z,2616.00
2023-03-30T06:44:13.153Z,2880.00
2023-03-30T06:45:13.150Z,3072.00
2023-03-30T06:46:13.135Z,3084.00
2023-03-30T06:47:13.132Z,2832.00
2023-03-30T06:48:13.113Z,2484.00
2023-03-30T06:49:13.121Z,2144.00
2023-03-30T06:50:13.094Z,1844.00
2023-03-30T06:51:13.050Z,1552.00
2023-03-30T06:52:13.046Z,1260.00
2023-03-30T06:53:13.035Z,984.00
2023-03-30T06:54:13.033Z,904.00
2023-03-30T06:55:13.044Z,844.00
2023-03-30T06:56:13.004Z,712.00
2023-03-30T06:57:13.025Z,704.00
2023-03-30T06:58:12.982Z,736.00
2023-03-30T06:59:12.985Z,732.00
2023-03-30T07:00:13.013Z,728.00
2023-03-30T07:01:13.038Z,676.00
2023-03-30T07:02:12.943Z,616.00
2023-03-30T07:03:12.952Z,560.00
2023-03-30T07:04:12.949Z,480.00
2023-03-30T07:05:12.923Z,380.00
2023-03-30T07:06:12.911Z,328.00
2023-03-30T07:07:12.876Z,328.00
2023-03-30T07:08:12.877Z,392.00
2023-03-30T07:09:12.866Z,448.00
2023-03-30T07:10:12.883Z,432.00
2023-03-30T07:11:12.844Z,452.00
2023-03-30T07:12:12.830Z,500.00
2023-03-30T07:13:12.814Z,500.00
2023-03-30T07:14:12.843Z,528.00
2023-03-30T07:15:12.818Z,616.00
2023-03-30T07:16:12.798Z,664.00
2023-03-30T07:17:12.827Z,752.00
2023-03-30T07:18:12.868Z,892.00
2023-03-30T07:19:12.758Z,912.00
2023-03-30T07:20:12.768Z,840.00
2023-03-30T07:21:12.727Z,932.00
2023-03-30T07:22:12.721Z,1180.00
2023-03-30T07:23:12.713Z,1284.00
2023-03-30T07:24:12.979Z,1332.00
2023-03-30T07:25:12.706Z,1388.00
2023-03-30T07:26:12.690Z,1604.00
2023-03-30T07:27:12.666Z,1864.00
2023-03-30T07:28:12.655Z,2100.00
2023-03-30T07:29:12.638Z,2128.00
2023-03-30T07:30:21.070Z,2140.00
2023-03-30T07:31:12.711Z,2368.00
2023-03-30T07:32:12.694Z,2540.00
2023-03-30T07:33:12.605Z,2768.00
2023-03-30T07:34:12.591Z,2948.00
2023-03-30T07:35:12.591Z,2944.00
2023-03-30T07:36:12.603Z,2748.00
2023-03-30T07:37:12.566Z,2296.00
2023-03-30T07:38:12.541Z,2004.00
2023-03-30T07:39:12.530Z,1800.00
2023-03-30T07:40:12.722Z,1640.00
2023-03-30T07:41:12.528Z,1716.00
2023-03-30T07:42:12.497Z,1900.00
2023-03-30T07:43:12.515Z,2016.00
2023-03-30T07:44:12.492Z,2328.00
2023-03-30T07:45:14.869Z,2520.00
2023-03-30T07:46:12.531Z,2696.00
2023-03-30T07:47:12.440Z,2448.00
2023-03-30T07:48:12.473Z,1948.00
2023-03-30T07:49:12.408Z,1596.00
2023-03-30T07:50:12.433Z,1504.00
2023-03-30T07:51:12.442Z,1560.00
2023-03-30T07:52:12.381Z,1648.00
2023-03-30T07:53:12.382Z,1768.00
2023-03-30T07:54:12.361Z,1868.00
2023-03-30T07:55:12.472Z,1964.00
2023-03-30T07:56:12.365Z,2128.00
2023-03-30T07:57:12.437Z,2132.00
2023-03-30T07:58:12.319Z,2084.00
2023-03-30T07:59:12.334Z,2096.00
2023-03-30T08:00:12.320Z,1836.00
2023-03-30T08:01:12.285Z,1428.00
2023-03-30T08:02:12.272Z,1448.00
2023-03-30T08:03:12.450Z,1340.00
2023-03-30T08:04:12.299Z,1100.00
2023-03-30T08:05:12.422Z,1132.00
2023-03-30T08:06:12.231Z,1240.00
2023-03-30T08:07:12.227Z,1532.00
2023-03-30T08:08:12.216Z,2192.00
2023-03-30T08:09:12.193Z,2736.00
2023-03-30T08:10:12.207Z,3484.00
2023-03-30T08:11:12.172Z,3924.00
2023-03-30T08:12:12.166Z,3772.00
2023-03-30T08:13:12.149Z,3544.00
2023-03-30T08:14:12.145Z,2996.00
2023-03-30T08:15:12.165Z,2064.00
2023-03-30T08:16:12.205Z,1268.00
2023-03-30T08:17:12.187Z,896.00
2023-03-30T08:18:12.113Z,672.00
2023-03-30T08:19:12.085Z,508.00
2023-03-30T08:20:12.102Z,360.00
2023-03-30T08:21:12.081Z,472.00
2023-03-30T08:22:12.047Z,608.00
2023-03-30T08:23:12.039Z,664.00
2023-03-30T08:24:12.028Z,628.00
2023-03-30T08:25:12.050Z,648.00
2023-03-30T08:26:12.010Z,604.00
2023-03-30T08:27:12.060Z,656.00
2023-03-30T08:28:11.988Z,724.00
2023-03-30T08:29:11.964Z,800.00
2023-03-30T08:30:11.985Z,808.00
2023-03-30T08:31:11.999Z,708.00
2023-03-30T08:32:11.937Z,576.00
2023-03-30T08:33:11.940Z,560.00
2023-03-30T08:34:11.919Z,612.00
2023-03-30T08:35:11.936Z,692.00
2023-03-30T08:36:11.894Z,844.00
2023-03-30T08:37:11.870Z,1048.00
2023-03-30T08:38:11.865Z,1208.00
2023-03-30T08:39:11.851Z,1348.00
2023-03-30T08:40:11.876Z,1464.00
2023-03-30T08:41:11.823Z,1472.00
2023-03-30T08:42:11.839Z,1576.00
2023-03-30T08:43:11.803Z,1640.00
2023-03-30T08:44:11.794Z,1840.00
2023-03-30T08:45:11.808Z,2144.00
2023-03-30T08:46:11.864Z,2472.00
2023-03-30T08:47:11.763Z,2816.00
2023-03-30T08:48:11.805Z,3116.00
2023-03-30T08:49:11.739Z,3400.00
2023-03-30T08:50:11.775Z,3728.00
2023-03-30T08:51:11.717Z,3980.00
2023-03-30T08:52:11.744Z,4228.00
2023-03-30T08:53:11.689Z,4504.00
2023-03-30T08:54:11.699Z,4676.00
2023-03-30T08:55:11.684Z,4796.00
2023-03-30T08:56:11.661Z,4692.00
2023-03-30T08:57:11.759Z,4484.00
2023-03-30T08:58:11.647Z,4328.00
2023-03-30T08:59:11.623Z,4784.00
2023-03-30T09:00:11.653Z,4416.00
2023-03-30T09:01:11.653Z,5440.00
2023-03-30T09:02:11.613Z,5240.00
2023-03-30T09:03:11.652Z,5112.00
2023-03-30T09:04:11.572Z,5032.00
2023-03-30T09:05:11.587Z,5020.00
2023-03-30T09:06:11.553Z,5008.00
2023-03-30T09:07:11.555Z,5008.00
2023-03-30T09:08:11.528Z,5008.00
2023-03-30T09:09:11.517Z,5012.00
2023-03-30T09:10:11.527Z,5092.00
2023-03-30T09:11:11.542Z,5124.00
2023-03-30T09:12:11.504Z,5164.00
2023-03-30T09:13:11.462Z,5180.00
2023-03-30T09:14:11.465Z,5188.00
2023-03-30T09:15:11.462Z,5228.00
2023-03-30T09:16:11.484Z,5244.00
2023-03-30T09:17:11.415Z,5288.00
2023-03-30T09:18:11.456Z,5360.00
2023-03-30T09:19:11.396Z,5424.00
2023-03-30T09:20:11.429Z,5584.00
2023-03-30T09:21:11.372Z,5924.00
2023-03-30T09:22:11.406Z,6508.00
2023-03-30T09:23:11.352Z,5836.00
2023-03-30T09:24:11.345Z,4996.00
2023-03-30T09:25:11.344Z,5840.00
2023-03-30T09:26:11.330Z,8192.00
2023-03-30T09:27:11.305Z,8504.00
2023-03-30T09:28:11.311Z,8076.00
2023-03-30T09:29:11.283Z,9092.00
2023-03-30T09:30:11.292Z,9012.00
2023-03-30T09:31:11.279Z,6964.00
2023-03-30T09:32:11.364Z,8068.00
2023-03-30T09:33:11.298Z,6816.00
2023-03-30T09:34:13.642Z,5140.00
2023-03-30T09:35:11.235Z,8148.00
2023-03-30T09:36:11.223Z,6772.00
2023-03-30T09:37:11.206Z,7832.00
2023-03-30T09:38:11.176Z,4200.00
2023-03-30T09:39:11.176Z,4168.00
2023-03-30T09:40:11.176Z,5012.00
2023-03-30T09:41:11.158Z,5404.00
2023-03-30T09:42:11.227Z,5484.00
2023-03-30T09:43:11.145Z,5496.00
2023-03-30T09:44:11.121Z,5152.00
2023-03-30T09:45:11.133Z,5288.00
2023-03-30T09:46:11.112Z,5000.00
2023-03-30T09:47:11.079Z,4772.00
2023-03-30T09:48:11.092Z,4424.00
2023-03-30T09:49:11.062Z,4256.00
2023-03-30T09:50:11.056Z,4976.00
2023-03-30T09:51:11.033Z,5536.00
2023-03-30T09:52:11.052Z,5620.00
2023-03-30T09:53:11.027Z,5564.00
2023-03-30T09:54:11.012Z,5328.00
2023-03-30T09:55:11.015Z,5596.00
2023-03-30T09:56:10.980Z,6184.00
2023-03-30T09:57:10.983Z,6456.00
2023-03-30T09:58:10.948Z,6620.00
2023-03-30T09:59:10.942Z,6600.00
2023-03-30T10:00:10.954Z,6168.00
2023-03-30T10:01:10.976Z,5380.00
2023-03-30T10:02:10.920Z,4536.00
2023-03-30T10:03:10.938Z,4232.00
2023-03-30T10:04:11.135Z,3776.00
2023-03-30T10:05:10.896Z,3688.00
2023-03-30T10:06:10.878Z,4096.00
2023-03-30T10:08:10.844Z,5064.00
2023-03-30T10:09:10.836Z,5192.00
2023-03-30T10:10:10.832Z,5160.00
2023-03-30T10:11:10.809Z,5096.00
2023-03-30T10:12:10.794Z,6320.00
2023-03-30T10:13:10.781Z,5676.00
2023-03-30T10:14:10.769Z,5372.00
2023-03-30T10:15:10.791Z,5408.00
2023-03-30T10:16:10.810Z,4668.00
2023-03-30T10:17:10.749Z,4500.00
2023-03-30T10:18:10.749Z,8196.00
2023-03-30T10:19:10.711Z,6672.00
2023-03-30T10:20:13.894Z,6372.00
2023-03-30T10:21:10.693Z,6764.00
2023-03-30T10:22:10.682Z,5552.00
2023-03-30T10:23:10.682Z,5556.00
2023-03-30T10:24:10.658Z,6020.00
2023-03-30T10:25:10.667Z,6088.00
2023-03-30T10:26:10.633Z,5720.00
2023-03-30T10:27:10.625Z,5060.00
2023-03-30T10:28:10.609Z,4768.00
2023-03-30T10:29:10.602Z,4656.00
2023-03-30T10:30:10.606Z,4520.00
2023-03-30T10:31:10.649Z,4536.00
2023-03-30T10:32:10.571Z,4856.00
2023-03-30T10:33:10.599Z,7308.00
2023-03-30T10:34:10.552Z,5208.00
2023-03-30T10:35:10.566Z,5048.00
2023-03-30T10:36:10.543Z,5156.00
2023-03-30T10:37:10.517Z,5376.00
2023-03-30T10:38:10.579Z,5220.00
2023-03-30T10:39:10.492Z,5368.00
2023-03-30T10:40:10.531Z,5492.00
2023-03-30T10:41:10.485Z,7412.00
2023-03-30T10:42:10.477Z,8688.00
2023-03-30T10:43:10.443Z,7440.00
2023-03-30T10:44:10.427Z,5920.00
2023-03-30T10:45:10.461Z,5172.00
2023-03-30T10:46:18.946Z,4676.00
2023-03-30T10:47:10.439Z,4088.00
2023-03-30T10:48:10.395Z,3292.00
2023-03-30T10:49:10.385Z,2388.00
2023-03-30T10:50:10.389Z,1792.00
2023-03-30T10:51:10.362Z,1536.00
2023-03-30T10:52:10.339Z,1444.00
2023-03-30T10:53:10.339Z,1392.00
2023-03-30T10:54:10.324Z,1448.00
2023-03-30T10:55:10.331Z,1464.00
2023-03-30T10:56:10.297Z,1384.00
2023-03-30T10:57:10.329Z,1440.00
2023-03-30T10:58:10.271Z,1848.00
2023-03-30T10:59:10.270Z,2448.00
2023-03-30T11:00:10.279Z,2904.00
2023-03-30T11:01:10.277Z,3312.00
2023-03-30T11:02:10.225Z,3644.00
2023-03-30T11:03:10.293Z,3888.00
2023-03-30T11:04:22.677Z,4028.00
2023-03-30T11:05:10.220Z,4252.00
2023-03-30T11:06:10.178Z,4684.00
2023-03-30T11:07:10.181Z,5092.00
2023-03-30T11:08:10.156Z,5204.00
2023-03-30T11:09:10.149Z,5192.00
2023-03-30T11:10:10.158Z,4908.00
2023-03-30T11:11:10.126Z,5060.00
2023-03-30T11:12:10.118Z,4756.00
2023-03-30T11:13:10.101Z,5740.00
2023-03-30T11:14:10.092Z,5028.00
2023-03-30T11:15:10.113Z,4808.00
2023-03-30T11:16:10.207Z,4736.00
2023-03-30T11:17:10.095Z,4556.00
2023-03-30T11:18:10.078Z,4504.00
2023-03-30T11:19:10.089Z,4488.00
2023-03-30T11:20:10.045Z,5892.00
2023-03-30T11:21:10.010Z,8476.00
2023-03-30T11:22:09.992Z,7056.00
2023-03-30T11:23:10.002Z,8240.00
2023-03-30T11:24:09.967Z,9636.00
2023-03-30T11:25:09.978Z,7468.00
2023-03-30T11:26:09.946Z,9844.00
2023-03-30T11:27:09.946Z,9280.00
2023-03-30T11:28:09.926Z,8612.00
2023-03-30T11:29:09.952Z,8572.00
2023-03-30T11:30:09.922Z,8208.00
2023-03-30T11:31:09.889Z,8588.00
2023-03-30T11:32:10.045Z,8736.00
2023-03-30T11:33:09.940Z,10132.00
2023-03-30T11:34:09.856Z,7652.00
2023-03-30T11:35:09.869Z,10328.00
2023-03-30T11:36:09.881Z,6968.00
2023-03-30T11:37:09.837Z,6376.00
2023-03-30T11:38:09.812Z,9276.00
2023-03-30T11:39:18.457Z,5284.00
2023-03-30T11:40:09.811Z,6684.00
2023-03-30T11:41:09.777Z,6084.00
2023-03-30T11:42:09.777Z,4780.00
2023-03-30T11:43:09.753Z,5632.00
2023-03-30T11:44:09.740Z,5488.00
2023-03-30T11:45:09.753Z,5560.00
2023-03-30T11:46:10.044Z,4956.00
2023-03-30T11:47:09.754Z,3528.00
2023-03-30T11:48:09.757Z,2692.00
2023-03-30T11:49:09.696Z,2196.00
2023-03-30T11:50:09.697Z,1736.00
2023-03-30T11:51:09.663Z,1332.00
2023-03-30T11:52:09.647Z,1092.00
2023-03-30T11:53:09.644Z,1044.00
2023-03-30T11:54:09.622Z,1364.00
2023-03-30T11:55:09.642Z,2068.00
2023-03-30T11:56:09.608Z,2856.00
2023-03-30T11:57:09.650Z,3436.00
2023-03-30T11:58:09.597Z,3500.00
2023-03-30T11:59:09.579Z,3196.00
2023-03-30T12:00:09.562Z,3384.00
2023-03-30T12:01:09.577Z,3628.00
2023-03-30T12:02:09.619Z,3912.00
2023-03-30T12:03:09.671Z,4456.00
2023-03-30T12:04:09.648Z,8128.00
2023-03-30T12:05:09.526Z,8368.00
2023-03-30T12:06:09.518Z,9040.00
2023-03-30T12:07:09.486Z,6612.00
2023-03-30T12:08:09.478Z,6672.00
2023-03-30T12:09:09.462Z,6504.00
2023-03-30T12:10:09.442Z,7348.00
2023-03-30T12:11:09.456Z,8964.00
2023-03-30T12:12:09.428Z,6456.00
2023-03-30T12:13:09.417Z,8568.00
2023-03-30T12:14:09.403Z,6072.00
2023-03-30T12:15:09.409Z,6188.00
2023-03-30T12:16:09.434Z,6328.00
2023-03-30T12:17:09.375Z,6516.00
2023-03-30T12:18:09.403Z,6520.00
2023-03-30T12:19:09.364Z,6420.00
2023-03-30T12:20:09.340Z,6268.00
2023-03-30T12:21:09.349Z,5856.00
2023-03-30T12:22:09.324Z,5840.00
2023-03-30T12:23:09.307Z,5620.00
2023-03-30T12:24:09.287Z,5400.00
2023-03-30T12:25:09.280Z,5240.00
2023-03-30T12:26:09.291Z,5052.00
2023-03-30T12:27:11.131Z,5092.00
2023-03-30T12:28:09.246Z,5340.00
2023-03-30T12:30:09.240Z,6368.00
2023-03-30T12:31:09.266Z,6084.00
2023-03-30T12:32:09.254Z,8048.00
2023-03-30T12:33:09.228Z,5116.00
2023-03-30T12:34:09.186Z,4480.00
2023-03-30T12:35:09.170Z,4164.00
2023-03-30T12:36:09.283Z,3992.00
2023-03-30T12:37:09.152Z,4152.00
2023-03-30T12:38:09.168Z,4776.00
2023-03-30T12:39:09.125Z,5312.00